Terminal Aerodrome Forecast
Issued by NWS

Home | Current Version | Previous Version | Text Only | Print | Product List | Glossary On
Versions: 1 2 3 4 5 6 7 8 9 10 11 12 13 14 15 16 17 18
000
FTUS44 KLZK 272108 AAB
TAFADF
TAF AMD
KADF 272108Z 2721/2818 19011KT P6SM VCSH SCT045 BKN200
     FM280030 18010KT P6SM OVC010
     FM280600 18008KT 5SM HZ OVC007
     FM281330 21006KT P6SM OVC015=

USA.gov is the U.S. government's official web portal to all federal, state and local government web resources and services.